To NAV CANADA Home Page Login to a new session Search on AWWS site Feedback and Comments Disclaimer Vers la page française équivalente Tips FAQ What's new on the site To the Forecasts and Observations / NOTAM section To "File a Flight Plan" website Publications and other links Update of the User's profile FIC Telephone Numbers My Weather Data Folder Route Weather Data Regional Weather Data Local Weather Data To the Forecasts and Observations / NOTAM section
Request Generated 02/24/2017 at 03:38:33 UTC . Weather information available at that time is displayed.

METAR/TAF

GREENWOOD/NS    

METAR CYZX 240300Z 23009KT 15SM OVC030 07/04 A2978 RMK SC8 WNDY HILL UNAVBL SLP084=
METAR CYZX 240200Z 24009KT 15SM SCT100 06/04 A2975 RMK AC4 WNDY HILL UNAVBL SLP076=
METAR CYZX 240100Z 22005KT 15SM SCT100 04/03 A2977 RMK AC4 WNDY HILL UNAVBL SLP082=

TAF CYZX 232330Z 2400/2424 22010KT P6SM FEW080 TEMPO 2401/2402 BKN006
FM240200 22010KT 6SM BR SCT005 TEMPO 2402/2405 1SM BR BKN005
FM240500 23005KT 1/2SM FG VV002 TEMPO 2405/2414 1SM -DZ BR OVC005
FM241400 26005KT P6SM SCT005 SCT100 TEMPO 2414/2415 5SM BR BKN005
FM241800 22005KT P6SM SCT050 OVC100
FM242000 22012KT 2SM -SHRA -DZ BR OVC006
RMK NXT FCST BY 240600Z=
Your time UTC time
Weather data provided by Environment Canada and NAV CANADA